Aeroporto :
LOGIN :

Iscrizione | Disclaimer

   EN    FR    IT 

 










Sommario :    VFR   VFR Marginale   IFR   IFR Intensivo   IFR Molto Intensivo
Visibilità : 
Base nubi : 
>= 8 km
>= 3000ft
5 / 8 km
1000 / 3000 ft
1500m / 5 km
500 / 1000 ft
800 / 1500m
200 / 500 ft
< 800m
< 200 ft
Simboli :   Temporali  Nebbia  Neve Forte  Precipitazioni Forti  Vento > 20 kt
SIGMETs :   Varie  Temporali  Ghiacco  Turbolenza  Onda orograficha  Ceneri Vulcaniche






- Altitudine del aeroporto : 25 ft
- Codice IATA : QCY


EGXC - RAF Coningsby

ULTIMO METAR :
  • 241750Z 24012KT 6000 RA FEW009 BKN015 OVC040 13/12 Q0992 RMK WHT

METARs OBSOLETI :
  • 241650Z 20025G35KT 9999 RA FEW010 BKN018 OVC030 15/13 Q0991 RMK WHT
  • 241550Z 18019G29KT 9999 -RA SCT010 BKN020 OVC032 14/13 Q0992 RMK GRN

TAF TAF EGXC
Valido dal 24 a 18 ore il 25 a 12 ore UTC


241627Z 2418/2512 20010KT 9999 BKN025
TEMPO 2418/2424 4000 RA BKN010
BECMG 2509/2512 21015G25KT



MetMap, La meteo Aeronautica in un colpo d'occhio ! - Copyright ORBIFLY Dicembre 2007 - Disclaimer

ORBIFLY MET'MAP TEAM :

Programmazione e sviluppo : Alexandra Zaïnal
Concezione : Baudouin d'Aumeries
Aiuto per la programmazione : Marc-Olivier Méhu
Supporto tecnico e logistico : Manuel Goepfert
Aiuto per la traduzione : Arnaldo La Scala

Contatto : metmap@orbifly.com




FONTI E CREDITI :

   NOAA